Terminal Aerodrome Forecast
Issued by NWS

Home | Current Version | Previous Version | Graphics & Text | Print | Product List | Glossary On
Versions: 1 2 3 4 5 6 7 8 9 10 11 12 13 14 15 16 17
924
FTUS43 KBIS 161620 AAD
TAFJMS
TAF AMD
KJMS 161620Z 1616/1712 14018G26KT 5SM BR OVC003
     FM161800 14019G28KT P6SM BKN005 BKN080
     FM161900 14020G30KT P6SM SCT010 BKN100
     FM170300 16012KT P6SM BKN090
     FM170800 24005KT P6SM BKN070
     FM171100 30008KT P6SM BKN080=

USA.gov is the U.S. government's official web portal to all federal, state and local government web resources and services.